createdAt,value
2019-04-28T00:01:54.771Z,98738.86
2019-04-28T00:04:24.386Z,98736.22
2019-04-28T00:06:54.026Z,98740.94
2019-04-28T00:09:23.789Z,98746.35
2019-04-28T00:11:53.499Z,98748.48
2019-04-28T00:14:23.186Z,98752.56
2019-04-28T00:16:53.195Z,98751.14
2019-04-28T00:19:24.514Z,98758.53
2019-04-28T00:21:55.802Z,98758.31
2019-04-28T00:24:27.065Z,98768.05
2019-04-28T00:26:58.323Z,98768.23
2019-04-28T00:29:38.677Z,98764.41
2019-04-28T00:32:01.088Z,98760.77
2019-04-28T00:34:31.201Z,98768.23
2019-04-28T00:37:02.559Z,98766.66
2019-04-28T00:39:32.200Z,98764.80
2019-04-28T00:42:03.338Z,98766.44
2019-04-28T00:44:33.561Z,98762.60
2019-04-28T00:47:03.175Z,98757.22
2019-04-28T00:49:47.790Z,98756.16
2019-04-28T00:52:19.419Z,98757.07
2019-04-28T00:54:50.050Z,98757.69
2019-04-28T00:57:21.217Z,98748.22
2019-04-28T00:59:57.466Z,98753.09
2019-04-28T01:02:24.108Z,98753.77
2019-04-28T01:04:53.876Z,98751.81
2019-04-28T01:07:23.586Z,98748.64
2019-04-28T01:09:53.206Z,98746.05
2019-04-28T01:12:22.843Z,98740.00
2019-04-28T01:14:54.967Z,98731.05
2019-04-28T01:17:34.403Z,98732.02
2019-04-28T01:20:13.336Z,98729.80
2019-04-28T01:22:42.973Z,98724.25
2019-04-28T01:25:12.787Z,98726.73
2019-04-28T01:27:42.270Z,98725.06
2019-04-28T01:30:13.836Z,98723.44
2019-04-28T01:32:49.728Z,98719.72
2019-04-28T01:35:20.921Z,98724.69
2019-04-28T01:37:50.834Z,98728.47
2019-04-28T01:40:20.672Z,98734.07
2019-04-28T01:42:50.282Z,98737.84
2019-04-28T01:45:20.553Z,98736.13
2019-04-28T01:47:50.512Z,98730.09
2019-04-28T01:50:20.572Z,98735.41
2019-04-28T01:52:51.588Z,98735.19
2019-04-28T01:55:21.434Z,98729.34
2019-04-28T01:57:51.044Z,98732.62
2019-04-28T02:00:25.497Z,98729.63
2019-04-28T02:02:53.113Z,98728.69
2019-04-28T02:05:22.820Z,98729.20
2019-04-28T02:07:52.436Z,98730.67
2019-04-28T02:10:22.218Z,98730.81
2019-04-28T02:12:51.835Z,98730.66
2019-04-28T02:15:21.515Z,98724.77
2019-04-28T02:17:51.639Z,98731.27
2019-04-28T02:20:23.229Z,98728.91
2019-04-28T02:23:03.638Z,98731.18
2019-04-28T02:25:33.256Z,98728.59
2019-04-28T02:28:02.896Z,98739.02
2019-04-28T02:30:45.442Z,98734.05
2019-04-28T02:33:03.941Z,98736.33
2019-04-28T02:35:34.282Z,98742.58
2019-04-28T02:38:04.258Z,98743.79
2019-04-28T02:40:33.872Z,98741.25
2019-04-28T02:43:03.516Z,98742.23
2019-04-28T02:45:36.246Z,98737.45
2019-04-28T02:48:07.668Z,98729.06
2019-04-28T02:50:41.100Z,98728.84
2019-04-28T02:53:17.889Z,98724.09
2019-04-28T02:55:47.580Z,98724.40
2019-04-28T02:58:17.290Z,98732.00
2019-04-28T03:01:02.839Z,98726.92
2019-04-28T03:03:20.922Z,98721.29
2019-04-28T03:05:51.201Z,98718.02
2019-04-28T03:08:21.711Z,98719.63
2019-04-28T03:10:51.500Z,98721.69
2019-04-28T03:13:21.182Z,98720.05
2019-04-28T03:15:51.768Z,98715.13
2019-04-28T03:18:21.659Z,98713.03
2019-04-28T03:20:51.851Z,98713.03
2019-04-28T03:23:22.033Z,98706.12
2019-04-28T03:26:01.369Z,98710.78
2019-04-28T03:28:33.690Z,98713.72
2019-04-28T03:31:35.003Z,98712.52
2019-04-28T03:33:43.529Z,98712.53
2019-04-28T03:36:13.830Z,98705.34
2019-04-28T03:38:40.639Z,98712.68
2019-04-28T03:41:11.358Z,98709.66
2019-04-28T03:43:41.126Z,98710.89
2019-04-28T03:46:15.077Z,98710.23
2019-04-28T03:48:44.715Z,98709.78
2019-04-28T03:51:14.395Z,98708.08
2019-04-28T03:53:44.050Z,98710.45
2019-04-28T03:56:13.657Z,98703.66
2019-04-28T03:58:43.312Z,98694.59
2019-04-28T04:01:12.980Z,98696.63
2019-04-28T04:03:42.647Z,98696.12
2019-04-28T04:06:12.270Z,98691.59
2019-04-28T04:08:41.899Z,98685.84
2019-04-28T04:11:17.045Z,98684.89
2019-04-28T04:14:03.889Z,98684.83
2019-04-28T04:16:45.028Z,98685.01
2019-04-28T04:19:16.229Z,98686.84
2019-04-28T04:21:45.842Z,98684.23
2019-04-28T04:24:15.506Z,98686.46
2019-04-28T04:26:45.122Z,98681.84
2019-04-28T04:29:14.735Z,98680.63
2019-04-28T04:31:44.373Z,98678.41
2019-04-28T04:34:13.987Z,98687.70
2019-04-28T04:36:43.622Z,98689.02
2019-04-28T04:39:13.264Z,98689.92
2019-04-28T04:41:43.753Z,98684.46
2019-04-28T04:44:13.567Z,98686.03
2019-04-28T04:46:43.211Z,98691.59
2019-04-28T04:49:12.848Z,98683.64
2019-04-28T04:51:44.005Z,98694.36
2019-04-28T04:54:13.804Z,98691.39
2019-04-28T04:56:43.446Z,98695.45
2019-04-28T04:59:13.066Z,98700.03
2019-04-28T05:01:47.137Z,98696.98
2019-04-28T05:04:19.705Z,98694.64
2019-04-28T05:06:49.723Z,98701.20
2019-04-28T05:09:19.672Z,98703.63
2019-04-28T05:11:50.118Z,98703.00
2019-04-28T05:14:20.057Z,98704.33
2019-04-28T05:16:49.861Z,98709.77
2019-04-28T05:19:20.006Z,98704.87
2019-04-28T05:21:49.982Z,98709.33
2019-04-28T05:24:25.651Z,98711.61
2019-04-28T05:26:55.264Z,98712.51
2019-04-28T05:29:26.699Z,98718.05
2019-04-28T05:31:59.846Z,98720.14
2019-04-28T05:34:29.516Z,98717.48
2019-04-28T05:37:00.688Z,98721.19
2019-04-28T05:39:30.371Z,98721.46
2019-04-28T05:42:00.792Z,98718.30
2019-04-28T05:44:32.130Z,98728.35
2019-04-28T05:47:02.026Z,98727.02
2019-04-28T05:49:31.408Z,98734.57
2019-04-28T05:52:20.035Z,98735.70
2019-04-28T05:55:10.190Z,98738.44
2019-04-28T05:57:53.046Z,98726.55
2019-04-28T06:00:23.892Z,98727.48
2019-04-28T06:02:56.815Z,98726.78
2019-04-28T06:05:26.668Z,98726.94
2019-04-28T06:07:59.610Z,98722.59
2019-04-28T06:10:29.877Z,98724.27
2019-04-28T06:12:59.822Z,98719.55
2019-04-28T06:15:29.585Z,98724.59
2019-04-28T06:18:00.184Z,98723.38
2019-04-28T06:20:30.371Z,98718.80
2019-04-28T06:23:00.111Z,98715.59
2019-04-28T06:25:29.736Z,98717.00
2019-04-28T06:27:59.803Z,98725.88
2019-04-28T06:30:29.471Z,98728.19
2019-04-28T06:33:07.988Z,98729.83
2019-04-28T06:35:35.067Z,98736.09
2019-04-28T06:38:04.747Z,98729.33
2019-04-28T06:40:34.381Z,98729.41
2019-04-28T06:43:04.064Z,98729.64
2019-04-28T06:45:33.748Z,98733.86
2019-04-28T06:48:03.361Z,98734.91
2019-04-28T06:50:33.020Z,98734.17
2019-04-28T06:53:03.042Z,98742.85
2019-04-28T06:55:32.825Z,98741.36
2019-04-28T06:58:02.439Z,98742.28
2019-04-28T07:00:32.093Z,98740.72
2019-04-28T07:03:01.724Z,98738.59
2019-04-28T07:05:31.667Z,98735.20
2019-04-28T07:08:01.291Z,98732.30
2019-04-28T07:10:30.906Z,98734.99
2019-04-28T07:13:00.607Z,98728.61
2019-04-28T07:15:30.231Z,98720.62
2019-04-28T07:17:59.867Z,98724.98
2019-04-28T07:20:32.734Z,98730.97
2019-04-28T07:23:02.526Z,98725.73
2019-04-28T07:25:32.476Z,98723.52
2019-04-28T07:28:02.115Z,98722.02
2019-04-28T07:30:31.741Z,98732.23
2019-04-28T07:33:01.422Z,98725.64
2019-04-28T07:35:31.107Z,98729.87
2019-04-28T07:38:00.723Z,98732.84
2019-04-28T07:40:30.363Z,98732.74
2019-04-28T07:42:59.985Z,98742.00
2019-04-28T07:45:29.703Z,98733.77
2019-04-28T07:47:59.587Z,98737.63
2019-04-28T07:50:29.227Z,98738.98
2019-04-28T07:53:03.256Z,98743.60
2019-04-28T07:55:33.162Z,98747.67
2019-04-28T07:58:02.748Z,98741.00
2019-04-28T08:00:32.991Z,98741.70
2019-04-28T08:03:02.608Z,98741.39
2019-04-28T08:05:32.231Z,98745.00
2019-04-28T08:08:01.941Z,98739.98
2019-04-28T08:10:31.631Z,98746.40
2019-04-28T08:13:01.271Z,98744.73
2019-04-28T08:15:30.889Z,98744.18
2019-04-28T08:18:00.523Z,98745.70
2019-04-28T08:20:30.204Z,98748.80
2019-04-28T08:22:59.845Z,98753.14
2019-04-28T08:25:29.461Z,98745.44
2019-04-28T08:27:59.369Z,98750.20
2019-04-28T08:30:29.126Z,98746.03
2019-04-28T08:33:00.411Z,98741.81
2019-04-28T08:35:30.203Z,98748.82
2019-04-28T08:37:59.929Z,98747.33
2019-04-28T08:40:29.538Z,98747.14
2019-04-28T08:42:59.256Z,98746.17
2019-04-28T08:45:28.874Z,98748.45
2019-04-28T08:47:58.493Z,98740.78
2019-04-28T08:50:28.128Z,98748.89
2019-04-28T08:52:57.740Z,98743.53
2019-04-28T08:55:27.392Z,98736.44
2019-04-28T08:57:57.087Z,98736.25
2019-04-28T09:00:26.746Z,98733.39
2019-04-28T09:02:56.370Z,98735.02
2019-04-28T09:05:26.016Z,98733.56
2019-04-28T09:07:55.637Z,98737.11
2019-04-28T09:10:25.271Z,98727.63
2019-04-28T09:12:54.891Z,98721.83
2019-04-28T09:15:24.572Z,98718.56
2019-04-28T09:17:54.197Z,98717.34
2019-04-28T09:20:23.819Z,98717.23
2019-04-28T09:22:53.472Z,98717.41
2019-04-28T09:25:23.095Z,98718.55
2019-04-28T09:27:52.755Z,98707.75
2019-04-28T09:30:22.529Z,98707.39
2019-04-28T09:32:52.241Z,98704.54
2019-04-28T09:35:21.881Z,98705.94
2019-04-28T09:37:51.529Z,98698.48
2019-04-28T09:40:21.159Z,98705.48
2019-04-28T09:42:58.248Z,98690.97
2019-04-28T09:45:29.517Z,98702.73
2019-04-28T09:47:59.174Z,98701.55
2019-04-28T09:50:28.803Z,98702.73
2019-04-28T09:52:58.448Z,98701.83
2019-04-28T09:55:28.072Z,98700.03
2019-04-28T09:57:57.743Z,98707.42
2019-04-28T10:00:27.437Z,98708.48
2019-04-28T10:02:57.056Z,98713.48
2019-04-28T10:05:26.793Z,98728.33
2019-04-28T10:07:56.417Z,98741.03
2019-04-28T10:10:26.069Z,98753.97
2019-04-28T10:12:55.681Z,98752.27
2019-04-28T10:15:25.496Z,98767.55
2019-04-28T10:17:55.122Z,98763.61
2019-04-28T10:20:24.923Z,98758.70
2019-04-28T10:22:54.538Z,98759.25
2019-04-28T10:25:24.158Z,98771.38
2019-04-28T10:27:53.805Z,98773.50
2019-04-28T10:30:23.559Z,98782.18
2019-04-28T10:32:53.206Z,98782.63
2019-04-28T10:35:22.820Z,98780.87
2019-04-28T10:37:52.468Z,98780.27
2019-04-28T10:40:48.687Z,98783.20
2019-04-28T10:43:18.486Z,98781.59
2019-04-28T10:45:49.959Z,98774.83
2019-04-28T10:48:19.739Z,98773.80
2019-04-28T10:50:49.367Z,98772.16
2019-04-28T10:53:19.016Z,98767.98
2019-04-28T10:55:48.643Z,98761.89
2019-04-28T10:58:18.333Z,98754.41
2019-04-28T11:00:48.033Z,98758.54
2019-04-28T11:03:17.705Z,98753.27
2019-04-28T11:05:47.418Z,98760.95
2019-04-28T11:08:35.420Z,98760.93
2019-04-28T11:11:06.708Z,98757.61
2019-04-28T11:13:36.319Z,98757.61
2019-04-28T11:16:06.378Z,98755.20
2019-04-28T11:18:36.059Z,98751.47
2019-04-28T11:21:05.785Z,98755.20
2019-04-28T11:23:35.549Z,98752.81
2019-04-28T11:26:05.403Z,98749.45
2019-04-28T11:28:37.798Z,98751.36
2019-04-28T11:31:07.236Z,98752.15
2019-04-28T11:33:38.586Z,98757.15
2019-04-28T11:36:08.418Z,98762.15
2019-04-28T11:38:38.131Z,98779.20
2019-04-28T11:41:07.886Z,98790.22
2019-04-28T11:43:37.605Z,98794.72
2019-04-28T11:46:08.861Z,98793.31
2019-04-28T11:48:38.579Z,98800.48
2019-04-28T11:51:08.196Z,98802.64
2019-04-28T11:53:37.860Z,98803.77
2019-04-28T11:56:07.542Z,98799.70
2019-04-28T11:58:37.227Z,98798.75
2019-04-28T12:01:08.585Z,98801.86
2019-04-28T12:03:38.348Z,98801.48
2019-04-28T12:06:07.983Z,98784.61
2019-04-28T12:08:37.601Z,98771.95
2019-04-28T12:11:08.946Z,98768.44
2019-04-28T12:13:43.000Z,98762.48
2019-04-28T12:16:14.808Z,98754.84
2019-04-28T12:18:46.632Z,98759.74
2019-04-28T12:21:16.413Z,98747.47
2019-04-28T12:23:46.096Z,98745.30
2019-04-28T12:26:15.736Z,98750.48
2019-04-28T12:28:45.359Z,98741.86
2019-04-28T12:31:14.994Z,98748.82
2019-04-28T12:33:44.616Z,98742.43
2019-04-28T12:36:14.339Z,98745.88
2019-04-28T12:38:43.965Z,98739.93
2019-04-28T12:41:13.588Z,98734.88
2019-04-28T12:43:43.237Z,98734.95
2019-04-28T12:46:12.865Z,98724.14
2019-04-28T12:48:42.515Z,98723.14
2019-04-28T12:51:12.321Z,98716.30
2019-04-28T12:53:42.044Z,98712.72
2019-04-28T12:56:12.249Z,98710.91
2019-04-28T12:58:41.965Z,98706.42
2019-04-28T13:01:16.280Z,98702.16
2019-04-28T13:03:46.773Z,98696.28
2019-04-28T13:06:23.516Z,98698.61
2019-04-28T13:08:53.234Z,98688.64
2019-04-28T13:11:22.863Z,98689.63
2019-04-28T13:13:52.513Z,98683.37
2019-04-28T13:16:22.138Z,98688.28
2019-04-28T13:18:51.797Z,98673.00
2019-04-28T13:21:21.429Z,98675.13
2019-04-28T13:23:51.077Z,98669.25
2019-04-28T13:26:20.786Z,98666.09
2019-04-28T13:28:50.412Z,98661.33
2019-04-28T13:31:20.077Z,98657.60
2019-04-28T13:33:56.453Z,98651.81
2019-04-28T13:36:21.070Z,98642.28
2019-04-28T13:38:50.733Z,98638.81
2019-04-28T13:41:20.425Z,98640.73
2019-04-28T13:43:50.060Z,98638.06
2019-04-28T13:46:19.710Z,98640.19
2019-04-28T13:48:49.348Z,98633.25
2019-04-28T13:51:19.093Z,98634.63
2019-04-28T13:53:48.692Z,98633.03
2019-04-28T13:56:18.353Z,98617.95
2019-04-28T13:58:49.651Z,98610.12
2019-04-28T14:01:29.554Z,98613.52
2019-04-28T14:04:12.938Z,98608.58
2019-04-28T14:06:44.254Z,98605.58
2019-04-28T14:09:15.636Z,98606.25
2019-04-28T14:11:45.499Z,98602.20
2019-04-28T14:14:15.299Z,98607.73
2019-04-28T14:16:46.155Z,98611.48
2019-04-28T14:19:15.820Z,98608.13
2019-04-28T14:21:45.718Z,98609.67
2019-04-28T14:24:15.426Z,98603.47
2019-04-28T14:26:45.219Z,98602.74
2019-04-28T14:29:14.900Z,98600.73
2019-04-28T14:31:44.586Z,98591.81
2019-04-28T14:34:14.306Z,98595.33
2019-04-28T14:36:44.019Z,98595.38
2019-04-28T14:39:14.027Z,98590.70
2019-04-28T14:41:43.758Z,98590.31
2019-04-28T14:44:13.424Z,98588.02
2019-04-28T14:46:43.041Z,98595.89
2019-04-28T14:49:12.827Z,98595.59
2019-04-28T14:51:42.471Z,98601.96
2019-04-28T14:54:12.096Z,98604.84
2019-04-28T14:56:41.815Z,98601.52
2019-04-28T14:59:11.447Z,98605.87
2019-04-28T15:01:55.926Z,98597.50
2019-04-28T15:04:30.124Z,98588.24
2019-04-28T15:07:03.914Z,98594.77
2019-04-28T15:09:51.580Z,98591.44
2019-04-28T15:12:21.348Z,98588.86
2019-04-28T15:14:51.093Z,98585.95
2019-04-28T15:17:20.815Z,98574.86
2019-04-28T15:19:50.440Z,98578.66
2019-04-28T15:22:20.093Z,98583.84
2019-04-28T15:24:49.712Z,98585.17
2019-04-28T15:27:19.370Z,98584.13
2019-04-28T15:29:50.423Z,98585.75
2019-04-28T15:32:20.135Z,98577.70
2019-04-28T15:34:49.759Z,98579.74
2019-04-28T15:37:19.629Z,98577.99
2019-04-28T15:39:49.255Z,98575.33
2019-04-28T15:42:18.878Z,98570.62
2019-04-28T15:44:48.526Z,98577.27
2019-04-28T15:47:18.159Z,98576.51
2019-04-28T15:49:47.814Z,98577.80
2019-04-28T15:52:17.438Z,98587.89
2019-04-28T15:54:47.245Z,98589.98
2019-04-28T15:57:16.875Z,98586.69
2019-04-28T15:59:46.679Z,98592.05
2019-04-28T16:02:16.310Z,98590.58
2019-04-28T16:04:46.000Z,98598.16
2019-04-28T16:07:24.558Z,98596.16
2019-04-28T16:09:46.999Z,98599.88
2019-04-28T16:12:16.655Z,98589.94
2019-04-28T16:14:46.281Z,98586.38
2019-04-28T16:17:15.938Z,98595.66
2019-04-28T16:19:45.569Z,98600.63
2019-04-28T16:22:15.217Z,98600.13
2019-04-28T16:24:44.850Z,98593.13
2019-04-28T16:27:14.519Z,98600.81
2019-04-28T16:29:44.149Z,98598.11
2019-04-28T16:32:13.843Z,98601.24
2019-04-28T16:34:43.501Z,98600.96
2019-04-28T16:37:13.120Z,98608.42
2019-04-28T16:39:42.833Z,98604.42
2019-04-28T16:42:12.464Z,98604.41
2019-04-28T16:44:42.180Z,98606.44
2019-04-28T16:47:11.809Z,98611.00
2019-04-28T16:49:41.464Z,98615.47
2019-04-28T16:52:11.086Z,98616.98
2019-04-28T16:54:40.810Z,98616.70
2019-04-28T16:57:12.077Z,98620.77
2019-04-28T16:59:52.423Z,98624.39
2019-04-28T17:02:26.266Z,98628.59
2019-04-28T17:04:55.891Z,98635.00
2019-04-28T17:07:25.618Z,98637.88
2019-04-28T17:09:55.317Z,98633.30
2019-04-28T17:12:25.037Z,98638.51
2019-04-28T17:14:54.659Z,98629.55
2019-04-28T17:17:24.320Z,98636.19
2019-04-28T17:19:54.027Z,98639.98
2019-04-28T17:22:23.738Z,98648.27
2019-04-28T17:24:53.382Z,98651.21
2019-04-28T17:27:23.040Z,98645.26
2019-04-28T17:29:52.734Z,98651.99
2019-04-28T17:32:22.389Z,98649.66
2019-04-28T17:34:52.020Z,98643.16
2019-04-28T17:37:21.847Z,98646.73
2019-04-28T17:39:51.464Z,98648.94
2019-04-28T17:42:21.081Z,98658.03
2019-04-28T17:44:50.796Z,98652.30
2019-04-28T17:47:20.866Z,98657.81
2019-04-28T17:49:50.516Z,98656.27
2019-04-28T17:52:20.273Z,98655.78
2019-04-28T17:54:50.122Z,98661.03
2019-04-28T17:57:19.907Z,98662.54
2019-04-28T17:59:51.220Z,98662.77
2019-04-28T18:02:38.597Z,98662.24
2019-04-28T18:05:18.884Z,98672.08
2019-04-28T18:07:49.779Z,98671.94
2019-04-28T18:10:20.464Z,98675.14
2019-04-28T18:13:00.369Z,98680.07
2019-04-28T18:15:39.332Z,98682.62
2019-04-28T18:18:28.535Z,98686.02
2019-04-28T18:20:58.185Z,98693.61
2019-04-28T18:23:27.811Z,98698.44
2019-04-28T18:25:57.467Z,98692.19
2019-04-28T18:28:27.093Z,98693.57
2019-04-28T18:31:14.494Z,98693.66
2019-04-28T18:33:45.780Z,98697.97
2019-04-28T18:36:19.918Z,98702.06
2019-04-28T18:38:51.208Z,98698.44
2019-04-28T18:41:40.532Z,98701.20
2019-04-28T18:44:11.900Z,98702.80
2019-04-28T18:46:41.593Z,98705.70
2019-04-28T18:49:11.253Z,98717.29
2019-04-28T18:51:41.351Z,98725.94
2019-04-28T18:54:11.001Z,98726.06
2019-04-28T18:56:40.620Z,98733.34
2019-04-28T18:59:10.347Z,98733.87
2019-04-28T19:01:47.438Z,98736.49
2019-04-28T19:04:17.204Z,98746.48
2019-04-28T19:06:46.840Z,98755.38
2019-04-28T19:09:22.639Z,98761.09
2019-04-28T19:11:54.007Z,98763.89
2019-04-28T19:14:41.555Z,98768.12
2019-04-28T19:17:15.502Z,98772.89
2019-04-28T19:19:45.133Z,98780.81
2019-04-28T19:22:14.781Z,98779.88
2019-04-28T19:24:44.410Z,98784.36
2019-04-28T19:27:14.125Z,98791.80
2019-04-28T19:29:43.744Z,98794.69
2019-04-28T19:32:13.452Z,98794.69
2019-04-28T19:34:43.070Z,98796.33
2019-04-28T19:37:12.721Z,98802.23
2019-04-28T19:39:42.827Z,98798.86
2019-04-28T19:42:12.488Z,98802.03
2019-04-28T19:44:42.103Z,98804.23
2019-04-28T19:47:11.718Z,98803.61
2019-04-28T19:49:41.431Z,98801.31
2019-04-28T19:52:11.051Z,98808.50
2019-04-28T19:54:42.428Z,98808.78
2019-04-28T19:57:13.684Z,98813.44
2019-04-28T19:59:53.940Z,98811.59
2019-04-28T20:02:24.229Z,98813.03
2019-04-28T20:04:53.860Z,98814.13
2019-04-28T20:07:23.485Z,98823.07
2019-04-28T20:09:53.136Z,98827.99
2019-04-28T20:12:22.741Z,98821.10
2019-04-28T20:14:52.370Z,98826.48
2019-04-28T20:17:22.005Z,98828.88
2019-04-28T20:19:51.618Z,98833.73
2019-04-28T20:22:21.272Z,98831.73
2019-04-28T20:24:50.956Z,98840.28
2019-04-28T20:27:20.591Z,98838.62
2019-04-28T20:29:50.208Z,98840.98
2019-04-28T20:32:19.851Z,98840.53
2019-04-28T20:34:49.600Z,98841.63
2019-04-28T20:37:26.852Z,98844.47
2019-04-28T20:39:58.128Z,98847.23
2019-04-28T20:42:42.576Z,98848.17
2019-04-28T20:45:13.961Z,98850.78
2019-04-28T20:47:43.608Z,98848.36
2019-04-28T20:50:14.221Z,98849.11
2019-04-28T20:52:43.866Z,98849.26
2019-04-28T20:55:13.744Z,98853.62
2019-04-28T20:57:43.407Z,98853.42
2019-04-28T21:00:13.235Z,98855.00
2019-04-28T21:02:42.897Z,98858.77
2019-04-28T21:05:12.670Z,98857.19
2019-04-28T21:07:42.358Z,98855.34
2019-04-28T21:10:12.074Z,98852.23
2019-04-28T21:12:41.769Z,98861.06
2019-04-28T21:15:11.890Z,98852.30
2019-04-28T21:17:41.596Z,98856.08
2019-04-28T21:20:11.477Z,98861.42
2019-04-28T21:22:41.090Z,98867.30
2019-04-28T21:25:11.139Z,98866.12
2019-04-28T21:27:40.809Z,98864.72
2019-04-28T21:30:11.703Z,98869.16
2019-04-28T21:32:41.314Z,98873.84
2019-04-28T21:35:11.146Z,98868.62
2019-04-28T21:37:40.777Z,98872.41
2019-04-28T21:40:12.276Z,98873.05
2019-04-28T21:42:53.382Z,98869.47
2019-04-28T21:45:30.476Z,98880.27
2019-04-28T21:48:00.110Z,98879.19
2019-04-28T21:50:29.733Z,98884.66
2019-04-28T21:52:59.378Z,98884.48
2019-04-28T21:55:28.994Z,98876.86
2019-04-28T21:57:58.637Z,98880.97
2019-04-28T22:00:43.293Z,98877.14
2019-04-28T22:03:12.228Z,98878.05
2019-04-28T22:05:41.915Z,98878.88
2019-04-28T22:08:11.520Z,98877.67
2019-04-28T22:10:41.153Z,98884.09
2019-04-28T22:13:10.775Z,98888.84
2019-04-28T22:15:40.478Z,98890.44
2019-04-28T22:18:10.493Z,98890.56
2019-04-28T22:20:40.135Z,98889.23
2019-04-28T22:23:18.375Z,98894.91
2019-04-28T22:25:42.762Z,98893.94
2019-04-28T22:28:12.379Z,98890.00
2019-04-28T22:30:42.040Z,98894.50
2019-04-28T22:33:11.660Z,98892.72
2019-04-28T22:35:41.278Z,98892.66
2019-04-28T22:38:10.918Z,98894.57
2019-04-28T22:40:40.533Z,98894.08
2019-04-28T22:43:10.206Z,98898.36
2019-04-28T22:45:39.895Z,98896.86
2019-04-28T22:48:11.246Z,98896.04
2019-04-28T22:50:45.485Z,98893.09
2019-04-28T22:53:15.952Z,98893.99
2019-04-28T22:55:47.246Z,98899.33
2019-04-28T22:58:21.230Z,98896.45
2019-04-28T23:00:52.823Z,98902.44
2019-04-28T23:03:26.966Z,98909.27
2019-04-28T23:05:56.992Z,98903.56
2019-04-28T23:08:27.052Z,98906.44
2019-04-28T23:10:56.807Z,98906.30
2019-04-28T23:13:26.469Z,98908.80
2019-04-28T23:15:56.136Z,98904.45
2019-04-28T23:18:25.751Z,98908.45
2019-04-28T23:20:57.102Z,98908.91
2019-04-28T23:23:26.793Z,98910.75
2019-04-28T23:25:56.509Z,98906.38
2019-04-28T23:28:26.122Z,98902.50
2019-04-28T23:30:55.757Z,98901.69
2019-04-28T23:33:25.442Z,98904.66
2019-04-28T23:35:55.155Z,98908.38
2019-04-28T23:38:24.763Z,98909.89
2019-04-28T23:40:56.062Z,98912.69
2019-04-28T23:43:25.674Z,98904.99
2019-04-28T23:45:55.298Z,98905.72
2019-04-28T23:48:24.931Z,98903.87
2019-04-28T23:51:04.880Z,98901.71
2019-04-28T23:53:52.181Z,98907.89
2019-04-28T23:56:21.796Z,98908.02
2019-04-28T23:58:51.451Z,98911.58
